Stanley, Canada
Current Conditions -  °F | °C
As of 11:00 PM on Monday 20 Oct 2014 (Local Time) from CYFC Reporting Station
Clear Clear  
Wind Chill: 23°   Ceiling: Unl
Heat Index: 30°   Visibility: 9mi
Dew Point: 28°   Wind: 7mph
Humidity: 93%   Direction: 190°S
Pressure: 29.95"   Gusts: NA
Location:  46.28°N, 66.73°W
Report Text: CYFC 210200Z AUTO 19006KT 9SM CLR M01/M02 A2995 RMK SLP142
Loading
Personal Weather Stations






























Interactive Weather Map
Tropical Storm Tracking
New forecast layout! Learn more

10-Day Weather Forecast

Advertisements
Track Severe Weather on mobile